Time;durP1;ratioP1;P1;durP2;ratioP2;P2;SDS_P1;SDS_P2;PMS_P1;PMS_P2;Temp;Humidity;BMP_temperature;BMP_pressure;BME280_temperature;BME280_humidity;BME280_pressure;Samples;Min_cycle;Max_cycle;Signal;HPM_P1;HPM_P2
2022/02/14 00:00:26;;;;;;;4.15;2.20;;;;;;;;;;6214449;23;20059;-76
2022/02/14 00:02:52;;;;;;;5.90;2.90;;;;;;;;;;6212652;23;20430;-77
2022/02/14 00:05:17;;;;;;;8.57;2.42;;;;;;;;;;6188154;23;20000;-76
2022/02/14 00:07:42;;;;;;;6.00;2.38;;;;;;;;;;6188071;23;20066;-75
2022/02/14 00:10:08;;;;;;;5.45;2.30;;;;;;;;;;6214339;23;19997;-77
2022/02/14 00:12:34;;;;;;;5.30;2.40;;;;;;;;;;6213817;23;20008;-76
2022/02/14 00:14:59;;;;;;;4.15;2.08;;;;;;;;;;6214331;23;20000;-77
2022/02/14 00:17:25;;;;;;;9.88;2.38;;;;;;;;;;6187675;23;20027;-77
2022/02/14 00:19:51;;;;;;;6.05;2.22;;;;;;;;;;6214255;23;20051;-77
2022/02/14 00:22:18;;;;;;;6.40;1.90;;;;;;;;;;6214474;23;19996;-77
2022/02/14 00:24:43;;;;;;;6.60;2.50;;;;;;;;;;6187712;23;20025;-77
2022/02/14 00:27:08;;;;;;;6.75;2.15;;;;;;;;;;6187585;23;20000;-77
2022/02/14 00:29:34;;;;;;;6.82;2.25;;;;;;;;;;6214412;23;20055;-77
2022/02/14 00:31:59;;;;;;;7.13;2.22;;;;;;;;;;6213842;23;20438;-78
2022/02/14 00:34:24;;;;;;;4.40;2.03;;;;;;;;;;6214387;23;20464;-78
2022/02/14 00:36:49;;;;;;;4.82;2.17;;;;;;;;;;6214911;23;19997;-76
2022/02/14 00:39:14;;;;;;;4.80;2.00;;;;;;;;;;6214203;23;20086;-77
2022/02/14 00:41:39;;;;;;;5.80;2.08;;;;;;;;;;6213884;23;19993;-76
2022/02/14 00:44:05;;;;;;;6.68;2.40;;;;;;;;;;6213861;23;20055;-77
2022/02/14 00:46:30;;;;;;;6.97;2.55;;;;;;;;;;6214378;23;20418;-77
2022/02/14 00:48:55;;;;;;;7.93;2.10;;;;;;;;;;6214341;23;20354;-77
2022/02/14 00:51:20;;;;;;;7.07;2.22;;;;;;;;;;6214209;23;20012;-77
2022/02/14 00:53:46;;;;;;;5.18;2.38;;;;;;;;;;6187945;23;20501;-76
2022/02/14 00:56:11;;;;;;;5.18;2.47;;;;;;;;;;6215149;23;20008;-80
2022/02/14 00:58:36;;;;;;;3.58;1.83;;;;;;;;;;6214962;23;20005;-78
2022/02/14 01:01:01;;;;;;;6.07;2.13;;;;;;;;;;6214751;23;19989;-78
2022/02/14 01:03:27;;;;;;;5.43;2.20;;;;;;;;;;6214270;23;19989;-78
2022/02/14 01:05:52;;;;;;;4.63;2.17;;;;;;;;;;6215083;23;19993;-78
2022/02/14 01:08:17;;;;;;;5.32;2.30;;;;;;;;;;6215283;23;20120;-78
2022/02/14 01:10:42;;;;;;;4.28;2.35;;;;;;;;;;6214423;23;20427;-77
2022/02/14 01:13:08;;;;;;;5.85;2.10;;;;;;;;;;6187908;23;20054;-77
2022/02/14 01:15:33;;;;;;;5.25;2.20;;;;;;;;;;6188044;23;20426;-75
2022/02/14 01:17:58;;;;;;;5.63;2.10;;;;;;;;;;6214023;23;20008;-77
2022/02/14 01:20:23;;;;;;;7.05;1.85;;;;;;;;;;6214197;23;20008;-75
2022/02/14 01:22:49;;;;;;;6.95;2.33;;;;;;;;;;6213783;23;20438;-76
2022/02/14 01:25:14;;;;;;;5.32;2.13;;;;;;;;;;6214697;23;20331;-76
2022/02/14 01:27:39;;;;;;;5.40;2.00;;;;;;;;;;6216146;23;20434;-75
2022/02/14 01:30:05;;;;;;;6.28;3.30;;;;;;;;;;6216895;23;20004;-76
2022/02/14 01:32:30;;;;;;;3.88;1.90;;;;;;;;;;6216185;23;20072;-78
2022/02/14 01:34:55;;;;;;;6.43;2.38;;;;;;;;;;6216670;23;20438;-76
2022/02/14 01:37:21;;;;;;;6.95;2.97;;;;;;;;;;6215605;23;19996;-76
2022/02/14 01:39:46;;;;;;;7.65;2.13;;;;;;;;;;6188997;23;20458;-76
2022/02/14 01:42:12;;;;;;;5.25;2.42;;;;;;;;;;6215489;23;19992;-77
2022/02/14 01:44:38;;;;;;;5.15;2.35;;;;;;;;;;6215944;23;20426;-77
2022/02/14 01:47:04;;;;;;;9.05;2.85;;;;;;;;;;6216107;23;19992;-76
2022/02/14 01:49:29;;;;;;;4.95;2.00;;;;;;;;;;6216107;23;20048;-77
2022/02/14 01:51:54;;;;;;;7.32;2.20;;;;;;;;;;6216970;23;20008;-77
2022/02/14 01:54:21;;;;;;;5.60;2.05;;;;;;;;;;6217485;23;20001;-76
2022/02/14 01:56:47;;;;;;;4.05;1.77;;;;;;;;;;6217520;23;20000;-76
2022/02/14 01:59:12;;;;;;;8.40;1.80;;;;;;;;;;6215661;23;20010;-77
2022/02/14 02:01:37;;;;;;;6.32;2.35;;;;;;;;;;6215082;23;20020;-76
2022/02/14 02:04:02;;;;;;;7.65;2.60;;;;;;;;;;6215087;23;20425;-76
2022/02/14 02:06:28;;;;;;;5.00;1.92;;;;;;;;;;6215424;23;20001;-75
2022/02/14 02:08:53;;;;;;;6.68;2.15;;;;;;;;;;6215847;23;20068;-76
2022/02/14 02:14:02;;;;;;;5.32;2.22;;;;;;;;;;6215276;23;20012;-75
2022/02/14 02:16:28;;;;;;;8.05;2.28;;;;;;;;;;6215126;23;19997;-78
2022/02/14 02:18:53;;;;;;;4.45;2.10;;;;;;;;;;6215198;23;20422;-76
2022/02/14 02:21:18;;;;;;;4.38;1.77;;;;;;;;;;6215105;23;19992;-76
2022/02/14 02:23:45;;;;;;;5.70;2.55;;;;;;;;;;6214744;23;20445;-76
2022/02/14 02:26:10;;;;;;;5.55;2.10;;;;;;;;;;6215203;23;19997;-77
2022/02/14 02:28:36;;;;;;;4.57;2.22;;;;;;;;;;6215525;23;20422;-77
2022/02/14 02:31:02;;;;;;;6.20;1.92;;;;;;;;;;6215043;23;20035;-76
2022/02/14 02:33:30;;;;;;;3.83;1.90;;;;;;;;;;6214794;23;19996;-78
2022/02/14 02:35:56;;;;;;;5.75;1.90;;;;;;;;;;6214869;23;20001;-76
2022/02/14 02:38:23;;;;;;;5.55;2.20;;;;;;;;;;6215411;23;20008;-78
2022/02/14 02:40:48;;;;;;;7.82;2.42;;;;;;;;;;6214957;23;20072;-76
2022/02/14 02:43:13;;;;;;;3.88;1.77;;;;;;;;;;6214392;23;20024;-77
2022/02/14 02:45:38;;;;;;;7.22;2.17;;;;;;;;;;6215175;23;19997;-76
2022/02/14 02:48:04;;;;;;;4.50;1.90;;;;;;;;;;6215349;23;20334;-77
2022/02/14 02:50:29;;;;;;;6.05;1.77;;;;;;;;;;6214955;23;19996;-78
2022/02/14 02:52:54;;;;;;;8.13;2.13;;;;;;;;;;6214779;23;19993;-78
2022/02/14 02:55:20;;;;;;;7.28;1.90;;;;;;;;;;6214886;23;19997;-77
2022/02/14 02:57:45;;;;;;;7.13;2.08;;;;;;;;;;6215100;23;20426;-76
2022/02/14 03:00:10;;;;;;;8.80;1.85;;;;;;;;;;6214756;23;20035;-76
2022/02/14 03:02:35;;;;;;;4.03;1.80;;;;;;;;;;6214393;23;19996;-76
2022/02/14 03:05:01;;;;;;;7.30;2.20;;;;;;;;;;6214944;23;19999;-75
2022/02/14 03:07:26;;;;;;;5.60;2.03;;;;;;;;;;6214981;23;20000;-76
2022/02/14 03:09:51;;;;;;;7.35;1.77;;;;;;;;;;6214656;23;20370;-76
2022/02/14 03:12:16;;;;;;;5.75;2.17;;;;;;;;;;6214684;23;19993;-77
2022/02/14 03:14:41;;;;;;;5.82;1.98;;;;;;;;;;6214846;23;20001;-77
2022/02/14 03:17:10;;;;;;;4.88;2.20;;;;;;;;;;6214833;23;20036;-75
2022/02/14 03:19:36;;;;;;;7.68;2.38;;;;;;;;;;6214684;23;20020;-76
2022/02/14 03:22:03;;;;;;;4.32;1.52;;;;;;;;;;6214129;23;20315;-76
2022/02/14 03:24:28;;;;;;;5.88;1.65;;;;;;;;;;6214752;23;20022;-75
2022/02/14 03:26:53;;;;;;;3.20;1.63;;;;;;;;;;6214866;23;20438;-77
2022/02/14 03:29:18;;;;;;;4.80;2.12;;;;;;;;;;6188259;23;20496;-77
2022/02/14 03:31:43;;;;;;;6.47;1.98;;;;;;;;;;6214708;23;20003;-77
2022/02/14 03:34:09;;;;;;;4.05;1.90;;;;;;;;;;6215049;23;20304;-76
2022/02/14 03:36:34;;;;;;;4.03;1.70;;;;;;;;;;6214743;23;20011;-77
2022/02/14 03:38:59;;;;;;;7.35;1.90;;;;;;;;;;6214249;23;20008;-78
2022/02/14 03:41:25;;;;;;;6.05;2.10;;;;;;;;;;6214438;23;20027;-76
2022/02/14 03:43:50;;;;;;;5.38;1.92;;;;;;;;;;6214019;23;20031;-77
2022/02/14 03:46:15;;;;;;;6.38;2.10;;;;;;;;;;6214628;23;19997;-75
2022/02/14 03:48:40;;;;;;;5.53;2.25;;;;;;;;;;6214011;23;20054;-77
2022/02/14 03:51:06;;;;;;;4.22;1.70;;;;;;;;;;6214358;23;20012;-76
2022/02/14 03:53:31;;;;;;;4.88;1.80;;;;;;;;;;6213861;23;20011;-76
2022/02/14 03:55:57;;;;;;;7.53;2.08;;;;;;;;;;6213557;23;20001;-77
2022/02/14 03:58:22;;;;;;;4.28;1.92;;;;;;;;;;6215086;23;20000;-77
2022/02/14 04:00:47;;;;;;;5.50;2.17;;;;;;;;;;6214334;23;20042;-77
2022/02/14 04:03:12;;;;;;;5.97;2.33;;;;;;;;;;6214621;23;20040;-77
2022/02/14 04:05:38;;;;;;;5.43;1.80;;;;;;;;;;6216726;23;19993;-77
2022/02/14 04:08:03;;;;;;;8.02;1.92;;;;;;;;;;6218231;23;20078;-76
2022/02/14 04:10:28;;;;;;;4.93;1.90;;;;;;;;;;6223063;23;19993;-77
2022/02/14 04:12:54;;;;;;;7.13;2.05;;;;;;;;;;6238828;23;19987;-78
2022/02/14 04:15:19;;;;;;;4.00;1.58;;;;;;;;;;6220510;23;20422;-77
2022/02/14 04:17:44;;;;;;;4.72;1.60;;;;;;;;;;6215669;23;20418;-78
2022/02/14 04:20:09;;;;;;;3.92;1.75;;;;;;;;;;6214565;23;20107;-76
2022/02/14 04:22:37;;;;;;;8.55;2.08;;;;;;;;;;6213811;23;20000;-78
2022/02/14 04:25:02;;;;;;;8.68;1.65;;;;;;;;;;6187849;23;20067;-78
2022/02/14 04:27:27;;;;;;;4.63;2.10;;;;;;;;;;6214272;23;20031;-76
2022/02/14 04:29:52;;;;;;;4.95;1.67;;;;;;;;;;6214304;23;20000;-78
2022/02/14 04:32:18;;;;;;;5.00;1.92;;;;;;;;;;6213632;23;20004;-77
2022/02/14 04:34:43;;;;;;;6.10;1.92;;;;;;;;;;6213947;23;20071;-78
2022/02/14 04:37:08;;;;;;;4.68;1.92;;;;;;;;;;6214219;23;20028;-77
2022/02/14 04:39:33;;;;;;;6.60;2.00;;;;;;;;;;6214090;23;20072;-77
2022/02/14 04:41:58;;;;;;;12.25;4.18;;;;;;;;;;6213722;23;20418;-76
2022/02/14 04:44:24;;;;;;;5.45;2.10;;;;;;;;;;6214356;23;20007;-76
2022/02/14 04:46:49;;;;;;;6.63;1.98;;;;;;;;;;6214742;23;20418;-78
2022/02/14 04:49:15;;;;;;;4.47;2.03;;;;;;;;;;6214467;23;20000;-76
2022/02/14 04:51:40;;;;;;;6.78;2.10;;;;;;;;;;6214266;23;20027;-76
2022/02/14 04:54:05;;;;;;;6.75;2.05;;;;;;;;;;6214903;23;20005;-77
2022/02/14 04:56:31;;;;;;;5.07;1.85;;;;;;;;;;6214730;23;20426;-78
2022/02/14 04:58:56;;;;;;;5.07;1.63;;;;;;;;;;6215393;23;20004;-77
2022/02/14 05:01:22;;;;;;;9.15;2.35;;;;;;;;;;6217300;23;20000;-78
2022/02/14 05:03:47;;;;;;;10.35;2.47;;;;;;;;;;6216946;23;20247;-77
2022/02/14 05:06:12;;;;;;;6.65;2.05;;;;;;;;;;6216295;23;20003;-78
2022/02/14 05:08:39;;;;;;;7.10;1.73;;;;;;;;;;6216475;23;20423;-76
2022/02/14 05:11:05;;;;;;;4.40;1.58;;;;;;;;;;6217129;23;20433;-76
2022/02/14 05:13:30;;;;;;;5.53;1.90;;;;;;;;;;6216409;23;20032;-77
2022/02/14 05:15:55;;;;;;;6.00;1.77;;;;;;;;;;6217258;23;20038;-77
2022/02/14 05:18:20;;;;;;;5.20;1.73;;;;;;;;;;6216306;23;20004;-75
2022/02/14 05:20:45;;;;;;;6.70;1.70;;;;;;;;;;6216803;23;19996;-75
2022/02/14 05:23:11;;;;;;;3.85;1.67;;;;;;;;;;6189320;23;20063;-76
2022/02/14 05:25:36;;;;;;;5.40;2.08;;;;;;;;;;6189729;23;20001;-77
2022/02/14 05:28:11;;;;;;;4.50;1.92;;;;;;;;;;6216329;23;20012;-75
2022/02/14 05:30:36;;;;;;;8.43;2.13;;;;;;;;;;6216627;23;20484;-77
2022/02/14 05:33:02;;;;;;;6.28;2.05;;;;;;;;;;6215917;23;20020;-75
2022/02/14 05:35:27;;;;;;;4.32;1.70;;;;;;;;;;6215711;23;20020;-75
2022/02/14 05:37:53;;;;;;;5.00;1.98;;;;;;;;;;6216039;23;19992;-75
2022/02/14 05:40:18;;;;;;;5.03;1.88;;;;;;;;;;6188892;23;20009;-76
2022/02/14 05:42:44;;;;;;;8.55;1.80;;;;;;;;;;6215724;23;20418;-75
2022/02/14 05:45:09;;;;;;;4.30;1.85;;;;;;;;;;6216184;23;19997;-77
2022/02/14 05:47:35;;;;;;;7.15;2.10;;;;;;;;;;6216795;23;20071;-77
2022/02/14 05:50:00;;;;;;;5.43;2.05;;;;;;;;;;6189495;23;20499;-77
2022/02/14 05:52:25;;;;;;;9.73;2.45;;;;;;;;;;6215715;23;20238;-78
2022/02/14 05:54:50;;;;;;;7.18;2.28;;;;;;;;;;6216302;23;20001;-77
2022/02/14 05:57:16;;;;;;;8.27;2.10;;;;;;;;;;6215989;23;20079;-78
2022/02/14 05:59:41;;;;;;;8.32;1.83;;;;;;;;;;6215864;23;20031;-77
2022/02/14 06:02:06;;;;;;;7.20;2.45;;;;;;;;;;6215806;23;20007;-76
2022/02/14 06:04:32;;;;;;;5.55;1.70;;;;;;;;;;6216363;23;20063;-77
2022/02/14 06:06:57;;;;;;;4.70;1.98;;;;;;;;;;6216061;23;19996;-75
2022/02/14 06:09:26;;;;;;;10.43;2.22;;;;;;;;;;6215985;23;20470;-76
2022/02/14 06:11:51;;;;;;;;;;;;;;;;;;6215373;23;20051;-75
2022/02/14 06:14:16;;;;;;;6.25;1.88;;;;;;;;;;6216787;23;19907;-75
2022/02/14 06:16:42;;;;;;;4.70;1.80;;;;;;;;;;6188781;23;20004;-75
2022/02/14 06:19:07;;;;;;;4.63;1.60;;;;;;;;;;6215344;23;20000;-76
2022/02/14 06:21:32;;;;;;;13.60;2.63;;;;;;;;;;6215394;23;20096;-76
2022/02/14 06:23:57;;;;;;;8.30;2.28;;;;;;;;;;6215894;23;19997;-74
2022/02/14 06:26:23;;;;;;;10.05;2.50;;;;;;;;;;6215558;23;20446;-76
2022/02/14 06:28:48;;;;;;;6.47;1.98;;;;;;;;;;6216129;23;20031;-76
2022/02/14 06:31:13;;;;;;;8.20;1.83;;;;;;;;;;6215428;23;20008;-76
2022/02/14 06:33:39;;;;;;;6.15;1.98;;;;;;;;;;6215495;23;19996;-76
2022/02/14 06:36:05;;;;;;;6.65;2.35;;;;;;;;;;6215658;23;19997;-76
2022/02/14 06:38:30;;;;;;;5.85;2.08;;;;;;;;;;6188424;23;20488;-76
2022/02/14 06:40:56;;;;;;;6.85;2.22;;;;;;;;;;6214963;23;19997;-75
2022/02/14 06:43:21;;;;;;;7.13;1.80;;;;;;;;;;6214815;23;19999;-76
2022/02/14 06:45:46;;;;;;;5.22;2.53;;;;;;;;;;6215149;23;20007;-76
2022/02/14 06:48:12;;;;;;;12.05;2.15;;;;;;;;;;6213771;23;20001;-76
2022/02/14 06:50:37;;;;;;;9.13;2.30;;;;;;;;;;6188159;23;20033;-76
2022/02/14 06:53:03;;;;;;;7.63;2.30;;;;;;;;;;6214830;23;20020;-75
2022/02/14 06:55:28;;;;;;;7.20;2.50;;;;;;;;;;6215111;23;20006;-76
2022/02/14 06:57:53;;;;;;;10.10;2.30;;;;;;;;;;6215252;23;19997;-77
2022/02/14 07:00:18;;;;;;;6.25;2.20;;;;;;;;;;6215239;23;20072;-77
2022/02/14 07:02:44;;;;;;;7.28;2.10;;;;;;;;;;6214942;23;19997;-76
2022/02/14 07:05:11;;;;;;;7.80;2.40;;;;;;;;;;6215567;23;20001;-76
2022/02/14 07:07:37;;;;;;;5.38;2.20;;;;;;;;;;6215489;23;20075;-75
2022/02/14 07:10:02;;;;;;;5.68;2.20;;;;;;;;;;6215400;23;20023;-76
2022/02/14 07:12:27;;;;;;;7.03;1.80;;;;;;;;;;6215042;23;20445;-75
2022/02/14 07:14:53;;;;;;;10.40;2.38;;;;;;;;;;6217625;23;20481;-76
2022/02/14 07:17:18;;;;;;;9.35;2.25;;;;;;;;;;6217323;23;20004;-76
2022/02/14 07:19:43;;;;;;;8.13;2.15;;;;;;;;;;6218754;23;19997;-77
2022/02/14 07:22:09;;;;;;;7.90;2.58;;;;;;;;;;6218724;23;20068;-77
2022/02/14 07:24:34;;;;;;;6.05;2.40;;;;;;;;;;6217218;23;20366;-75
2022/02/14 07:26:59;;;;;;;6.45;2.40;;;;;;;;;;6191324;23;20096;-75
2022/02/14 07:29:25;;;;;;;8.60;2.20;;;;;;;;;;6218827;23;20326;-75
2022/02/14 07:31:50;;;;;;;4.97;2.10;;;;;;;;;;6217908;23;20001;-76
2022/02/14 07:34:15;;;;;;;7.50;2.03;;;;;;;;;;6219154;23;20052;-76
2022/02/14 07:36:40;;;;;;;7.32;2.20;;;;;;;;;;6217908;23;19997;-75
2022/02/14 07:39:06;;;;;;;5.10;1.95;;;;;;;;;;6218822;23;20015;-75
2022/02/14 07:41:32;;;;;;;7.35;2.25;;;;;;;;;;6218265;23;19992;-76
2022/02/14 07:43:57;;;;;;;5.65;2.33;;;;;;;;;;6216291;23;19993;-75
2022/02/14 07:46:22;;;;;;;10.85;2.28;;;;;;;;;;6215845;23;20003;-75
2022/02/14 07:48:47;;;;;;;7.53;2.22;;;;;;;;;;6215172;23;20001;-76
2022/02/14 07:51:16;;;;;;;10.65;3.10;;;;;;;;;;6214883;23;20092;-75
2022/02/14 07:53:44;;;;;;;;;;;;;;;;;;6188230;23;20007;-76
2022/02/14 07:56:12;;;;;;;5.53;1.88;;;;;;;;;;6215679;23;19900;-76
2022/02/14 07:58:38;;;;;;;8.05;2.28;;;;;;;;;;6215075;23;20000;-77
2022/02/14 08:01:03;;;;;;;5.53;1.88;;;;;;;;;;6214478;23;19992;-77
2022/02/14 08:03:28;;;;;;;7.65;2.28;;;;;;;;;;6187406;23;20004;-75
2022/02/14 08:05:54;;;;;;;6.32;2.22;;;;;;;;;;6214831;23;20000;-77
2022/02/14 08:08:19;;;;;;;4.00;1.92;;;;;;;;;;6214191;23;20046;-76
2022/02/14 08:10:44;;;;;;;7.05;2.50;;;;;;;;;;6214068;23;20422;-76
2022/02/14 08:13:09;;;;;;;5.90;1.92;;;;;;;;;;6214278;23;20000;-75
2022/02/14 08:15:35;;;;;;;5.95;2.15;;;;;;;;;;6214964;23;20409;-75
2022/02/14 08:18:04;;;;;;;6.85;1.92;;;;;;;;;;6214919;23;20000;-77
2022/02/14 08:20:29;;;;;;;6.40;2.25;;;;;;;;;;6216363;23;20072;-75
2022/02/14 08:22:55;;;;;;;11.02;2.40;;;;;;;;;;6214757;23;19996;-76
2022/02/14 08:25:20;;;;;;;9.63;2.08;;;;;;;;;;6187989;23;19996;-76
2022/02/14 08:27:45;;;;;;;8.27;2.30;;;;;;;;;;6214614;23;20433;-76
2022/02/14 08:30:10;;;;;;;8.52;2.47;;;;;;;;;;6214645;23;20001;-75
2022/02/14 08:32:36;;;;;;;6.90;2.30;;;;;;;;;;6213651;23;20438;-76
2022/02/14 08:35:01;;;;;;;7.72;2.20;;;;;;;;;;6188910;23;20000;-75
2022/02/14 08:37:26;;;;;;;10.48;2.25;;;;;;;;;;6216571;23;20001;-75
2022/02/14 08:39:51;;;;;;;9.55;2.10;;;;;;;;;;6216888;23;20007;-76
2022/02/14 08:42:17;;;;;;;4.60;1.80;;;;;;;;;;6216222;23;20063;-76
2022/02/14 08:44:42;;;;;;;7.78;2.40;;;;;;;;;;6216338;23;19993;-76
2022/02/14 08:47:08;;;;;;;7.70;2.08;;;;;;;;;;6216280;23;20430;-77
2022/02/14 08:49:35;;;;;;;6.32;2.10;;;;;;;;;;6216104;23;20000;-77
2022/02/14 08:52:01;;;;;;;6.07;2.30;;;;;;;;;;6205688;23;20012;-77
2022/02/14 08:54:26;;;;;;;3.95;1.98;;;;;;;;;;6216367;23;20059;-76
2022/02/14 08:56:52;;;;;;;4.47;1.98;;;;;;;;;;6216100;23;20423;-77
2022/02/14 08:59:19;;;;;;;5.97;1.92;;;;;;;;;;6215931;23;20054;-76
2022/02/14 09:01:46;;;;;;;7.38;2.13;;;;;;;;;;6215563;23;19992;-76
2022/02/14 09:04:11;;;;;;;4.90;1.98;;;;;;;;;;6216353;23;19996;-76
2022/02/14 09:06:36;;;;;;;6.95;2.28;;;;;;;;;;6215860;23;20446;-75
2022/02/14 09:09:02;;;;;;;8.05;2.20;;;;;;;;;;6214520;23;20007;-75
2022/02/14 09:11:27;;;;;;;5.32;2.72;;;;;;;;;;6216235;23;20326;-76
2022/02/14 09:13:52;;;;;;;5.60;2.40;;;;;;;;;;6215433;23;20116;-75
2022/02/14 09:16:18;;;;;;;7.78;2.83;;;;;;;;;;6215826;23;20043;-76
2022/02/14 09:18:43;;;;;;;11.07;2.38;;;;;;;;;;6215943;23;20007;-76
2022/02/14 09:21:08;;;;;;;5.97;2.78;;;;;;;;;;6215754;23;20001;-76
2022/02/14 09:23:33;;;;;;;4.90;2.10;;;;;;;;;;6216165;23;19992;-75
2022/02/14 09:25:59;;;;;;;7.05;2.17;;;;;;;;;;6215948;23;20423;-76
2022/02/14 09:28:24;;;;;;;6.55;2.40;;;;;;;;;;6216335;23;19992;-78
2022/02/14 09:30:50;;;;;;;7.10;2.47;;;;;;;;;;6216235;23;19996;-76
2022/02/14 09:33:15;;;;;;;4.35;1.95;;;;;;;;;;6216036;23;20043;-76
2022/02/14 09:35:41;;;;;;;8.05;2.00;;;;;;;;;;6215981;23;19993;-75
2022/02/14 09:38:07;;;;;;;5.10;1.73;;;;;;;;;;6216265;23;20000;-76
2022/02/14 09:40:36;;;;;;;8.02;2.15;;;;;;;;;;6213151;23;20131;-76
2022/02/14 09:43:02;;;;;;;4.32;1.90;;;;;;;;;;6211589;23;20004;-77
2022/02/14 09:45:28;;;;;;;10.27;2.55;;;;;;;;;;6214705;23;20426;-77
2022/02/14 09:47:55;;;;;;;8.68;2.45;;;;;;;;;;6214805;23;20003;-76
2022/02/14 09:50:20;;;;;;;4.53;1.98;;;;;;;;;;6213990;23;20008;-74
2022/02/14 09:52:46;;;;;;;10.38;2.67;;;;;;;;;;6213931;23;20004;-77
2022/02/14 09:55:11;;;;;;;8.65;1.92;;;;;;;;;;6188588;23;20380;-76
2022/02/14 09:57:36;;;;;;;5.20;2.00;;;;;;;;;;6213649;23;20011;-76
2022/02/14 10:00:02;;;;;;;5.72;1.83;;;;;;;;;;6213125;23;20485;-75
2022/02/14 10:02:27;;;;;;;6.32;2.33;;;;;;;;;;6214543;23;20000;-76
2022/02/14 10:05:03;;;;;;;7.07;2.00;;;;;;;;;;6188456;23;20378;-77
2022/02/14 10:07:37;;;;;;;8.05;1.85;;;;;;;;;;6215171;23;20103;-76
2022/02/14 10:10:25;;;;;;;6.90;2.15;;;;;;;;;;6214884;23;20007;-75
2022/02/14 10:12:54;;;;;;;6.03;1.95;;;;;;;;;;6194798;23;20079;-76
2022/02/14 10:15:19;;;;;;;4.53;1.58;;;;;;;;;;6214909;23;20005;-77
2022/02/14 10:17:47;;;;;;;7.35;2.00;;;;;;;;;;6187949;23;20008;-76
2022/02/14 10:20:15;;;;;;;8.35;2.13;;;;;;;;;;6214967;23;19996;-76
2022/02/14 10:22:49;;;;;;;4.30;1.60;;;;;;;;;;6212351;23;19996;-75
2022/02/14 10:25:28;;;;;;;7.00;2.10;;;;;;;;;;6213783;23;20001;-77
2022/02/14 10:27:54;;;;;;;9.73;2.13;;;;;;;;;;6214851;23;20007;-75
2022/02/14 10:30:19;;;;;;;6.93;2.30;;;;;;;;;;6215386;23;20000;-80
2022/02/14 10:32:51;;;;;;;6.50;2.22;;;;;;;;;;6214882;23;20315;-75
2022/02/14 10:35:17;;;;;;;5.53;1.70;;;;;;;;;;6215752;23;20008;-76
2022/02/14 10:37:43;;;;;;;6.00;1.77;;;;;;;;;;6215349;23;20046;-76
2022/02/14 10:40:09;;;;;;;6.13;1.92;;;;;;;;;;6187795;23;19996;-75
2022/02/14 10:42:35;;;;;;;3.20;1.52;;;;;;;;;;6214184;23;19996;-76
2022/02/14 10:45:07;;;;;;;4.22;1.80;;;;;;;;;;6214683;23;19996;-75
2022/02/14 10:47:33;;;;;;;5.50;1.90;;;;;;;;;;6188038;23;19996;-76
2022/02/14 10:50:04;;;;;;;5.97;2.50;;;;;;;;;;6214026;23;20001;-76
2022/02/14 10:52:35;;;;;;;7.35;2.42;;;;;;;;;;6213749;23;20077;-77
2022/02/14 10:55:00;;;;;;;6.20;2.10;;;;;;;;;;6214735;23;19996;-76
2022/02/14 10:57:29;;;;;;;6.80;2.95;;;;;;;;;;6214112;23;20000;-77
2022/02/14 10:59:55;;;;;;;7.10;2.22;;;;;;;;;;6214341;23;20419;-76
2022/02/14 11:02:21;;;;;;;7.20;2.40;;;;;;;;;;6213377;23;19999;-77
2022/02/14 11:04:46;;;;;;;7.00;2.38;;;;;;;;;;6213348;23;20004;-77
2022/02/14 11:07:14;;;;;;;8.50;2.75;;;;;;;;;;6214237;23;20020;-77
2022/02/14 11:09:43;;;;;;;4.85;2.35;;;;;;;;;;6213871;23;19996;-77
2022/02/14 11:12:08;;;;;;;8.25;2.65;;;;;;;;;;6213188;23;20001;-76
2022/02/14 11:14:34;;;;;;;4.57;2.38;;;;;;;;;;6214105;23;20327;-76
2022/02/14 11:17:00;;;;;;;12.75;2.53;;;;;;;;;;6214053;23;19992;-77
2022/02/14 11:19:25;;;;;;;9.25;2.90;;;;;;;;;;6213546;23;20066;-77
2022/02/14 11:21:51;;;;;;;6.40;2.72;;;;;;;;;;6213606;23;19997;-77
2022/02/14 11:24:20;;;;;;;6.32;2.38;;;;;;;;;;6214407;23;20009;-77
2022/02/14 11:26:55;;;;;;;5.10;2.00;;;;;;;;;;6213932;23;19997;-78
2022/02/14 11:29:39;;;;;;;10.45;2.70;;;;;;;;;;6213617;23;20007;-75
2022/02/14 11:32:14;;;;;;;12.27;2.75;;;;;;;;;;6213268;23;20394;-76
2022/02/14 11:34:56;;;;;;;5.03;1.80;;;;;;;;;;6212859;23;20016;-78
2022/02/14 11:37:21;;;;;;;7.05;2.35;;;;;;;;;;6187200;23;20012;-76
2022/02/14 11:39:47;;;;;;;4.78;2.22;;;;;;;;;;6213901;23;20051;-77
2022/02/14 11:42:12;;;;;;;7.72;2.88;;;;;;;;;;6213330;23;19993;-79
2022/02/14 11:44:37;;;;;;;9.20;2.67;;;;;;;;;;6213484;23;20050;-78
2022/02/14 11:47:04;;;;;;;6.03;2.35;;;;;;;;;;6213366;23;20478;-76
2022/02/14 11:49:37;;;;;;;13.70;3.40;;;;;;;;;;6213369;23;20338;-77
2022/02/14 11:52:04;;;;;;;5.57;2.65;;;;;;;;;;6211594;23;20142;-77
2022/02/14 11:54:32;;;;;;;6.45;2.40;;;;;;;;;;6185396;23;20004;-78
2022/02/14 11:57:10;;;;;;;6.97;2.90;;;;;;;;;;6211726;23;20008;-76
2022/02/14 11:59:35;;;;;;;14.13;3.35;;;;;;;;;;6210069;23;19997;-76
2022/02/14 12:02:02;;;;;;;11.25;3.17;;;;;;;;;;6211215;23;20007;-78
2022/02/14 12:04:44;;;;;;;9.25;3.10;;;;;;;;;;6185358;23;19999;-78
2022/02/14 12:07:15;;;;;;;8.05;3.05;;;;;;;;;;6212024;23;20019;-77
2022/02/14 12:09:59;;;;;;;8.10;3.35;;;;;;;;;;6211353;23;20000;-77
2022/02/14 12:12:43;;;;;;;9.52;3.58;;;;;;;;;;6211084;23;20418;-77
2022/02/14 12:15:17;;;;;;;9.50;3.15;;;;;;;;;;6211852;23;19992;-76
2022/02/14 12:20:34;;;;;;;8.23;2.47;;;;;;;;;;6211801;23;20036;-78
2022/02/14 12:23:00;;;;;;;6.05;2.17;;;;;;;;;;6211616;23;20219;-78
2022/02/14 12:25:25;;;;;;;6.60;2.10;;;;;;;;;;6212116;23;19997;-78
2022/02/14 12:27:50;;;;;;;10.40;2.80;;;;;;;;;;6212744;23;19996;-79
2022/02/14 12:30:19;;;;;;;9.50;3.53;;;;;;;;;;6212740;23;20024;-78
2022/02/14 12:33:08;;;;;;;8.52;3.33;;;;;;;;;;6211281;23;20277;-79
2022/02/14 12:35:34;;;;;;;10.05;3.08;;;;;;;;;;6191549;23;20000;-80
2022/02/14 12:37:59;;;;;;;13.27;3.88;;;;;;;;;;6184878;23;20005;-78
2022/02/14 12:40:24;;;;;;;10.73;3.58;;;;;;;;;;6211380;23;20502;-81
2022/02/14 12:42:58;;;;;;;8.32;3.00;;;;;;;;;;6185110;23;20005;-77
2022/02/14 12:45:23;;;;;;;11.55;4.28;;;;;;;;;;6213584;23;20067;-77
2022/02/14 12:47:48;;;;;;;7.50;2.43;;;;;;;;;;6184909;23;20423;-77
2022/02/14 12:50:17;;;;;;;5.43;2.30;;;;;;;;;;6184832;23;20229;-77
2022/02/14 12:52:53;;;;;;;7.10;2.40;;;;;;;;;;5129042;27;20387;-76
2022/02/14 12:55:23;;;;;;;4.90;2.50;;;;;;;;;;5113123;27;20126;-76
2022/02/14 12:57:51;;;;;;;9.57;2.28;;;;;;;;;;5126167;28;20246;-78
2022/02/14 13:00:24;;;;;;;6.43;2.22;;;;;;;;;;5116474;28;20023;-77
2022/02/14 13:02:50;;;;;;;7.82;1.85;;;;;;;;;;5116979;27;20131;-78
2022/02/14 13:05:15;;;;;;;7.47;3.47;;;;;;;;;;5124662;28;20019;-76
2022/02/14 13:07:40;;;;;;;5.68;2.05;;;;;;;;;;5111775;27;20016;-78
2022/02/14 13:10:06;;;;;;;7.53;2.35;;;;;;;;;;5123275;27;20019;-78
2022/02/14 13:12:31;;;;;;;5.80;2.00;;;;;;;;;;5116263;28;20429;-77
2022/02/14 13:15:02;;;;;;;11.40;2.05;;;;;;;;;;5115768;27;20020;-78
2022/02/14 13:17:28;;;;;;;10.20;1.83;;;;;;;;;;5107158;28;20008;-79
2022/02/14 13:19:55;;;;;;;6.07;1.73;;;;;;;;;;5124828;27;20015;-77
2022/02/14 13:22:21;;;;;;;5.45;1.92;;;;;;;;;;5115846;28;20019;-77
2022/02/14 13:24:46;;;;;;;4.82;2.00;;;;;;;;;;5117308;27;20057;-77
2022/02/14 13:27:14;;;;;;;4.43;1.60;;;;;;;;;;5122178;28;20137;-77
2022/02/14 13:29:43;;;;;;;7.75;2.22;;;;;;;;;;5111678;27;20248;-76
2022/02/14 13:32:09;;;;;;;13.75;2.42;;;;;;;;;;5121455;27;20043;-78
2022/02/14 13:34:34;;;;;;;7.95;2.33;;;;;;;;;;5118145;28;20471;-76
2022/02/14 13:37:00;;;;;;;10.60;2.10;;;;;;;;;;5114873;27;20036;-76
2022/02/14 13:39:26;;;;;;;6.15;2.15;;;;;;;;;;5125724;28;20027;-78
2022/02/14 13:41:51;;;;;;;7.47;2.17;;;;;;;;;;5111690;28;20019;-78
2022/02/14 13:44:17;;;;;;;7.28;1.88;;;;;;;;;;5119542;28;20382;-78
2022/02/14 13:46:42;;;;;;;6.22;1.92;;;;;;;;;;5120085;28;20019;-77
2022/02/14 13:49:07;;;;;;;7.65;1.88;;;;;;;;;;5113514;27;20123;-77
2022/02/14 13:51:32;;;;;;;8.43;2.25;;;;;;;;;;5124406;28;20031;-77
2022/02/14 13:54:04;;;;;;;7.25;2.50;;;;;;;;;;5112484;28;20007;-77
2022/02/14 13:56:37;;;;;;;6.05;1.73;;;;;;;;;;5118788;27;20015;-79
2022/02/14 13:59:11;;;;;;;12.40;3.50;;;;;;;;;;5121791;28;20020;-79
2022/02/14 14:01:37;;;;;;;7.13;1.92;;;;;;;;;;5112526;27;20050;-77
2022/02/14 14:04:24;;;;;;;8.80;2.05;;;;;;;;;;5108464;28;20016;-78
2022/02/14 14:06:49;;;;;;;8.63;1.90;;;;;;;;;;5105790;28;20027;-78
2022/02/14 14:09:16;;;;;;;7.15;2.28;;;;;;;;;;5098629;28;20020;-78
2022/02/14 14:11:42;;;;;;;11.07;2.10;;;;;;;;;;5110576;28;20020;-76
2022/02/14 14:14:07;;;;;;;8.52;2.35;;;;;;;;;;5099984;28;20138;-76
2022/02/14 14:16:33;;;;;;;5.90;2.10;;;;;;;;;;5112653;28;20363;-78
2022/02/14 14:18:59;;;;;;;7.65;2.33;;;;;;;;;;5099133;28;20486;-77
2022/02/14 14:21:24;;;;;;;7.68;2.28;;;;;;;;;;5110481;28;20019;-78
2022/02/14 14:23:51;;;;;;;6.80;2.40;;;;;;;;;;5097041;28;20060;-76
2022/02/14 14:26:18;;;;;;;6.05;2.17;;;;;;;;;;5104696;28;20431;-77
2022/02/14 14:28:43;;;;;;;6.82;1.98;;;;;;;;;;5104672;28;20152;-76
2022/02/14 14:31:08;;;;;;;11.55;2.00;;;;;;;;;;5098065;28;20127;-77
2022/02/14 14:33:37;;;;;;;7.60;2.38;;;;;;;;;;5110578;28;20012;-78
2022/02/14 14:36:02;;;;;;;8.65;2.47;;;;;;;;;;5098073;28;20042;-76
2022/02/14 14:38:29;;;;;;;10.15;2.40;;;;;;;;;;5104995;27;20056;-76
2022/02/14 14:40:55;;;;;;;9.63;2.08;;;;;;;;;;5106289;28;20102;-79
2022/02/14 14:43:20;;;;;;;12.07;2.55;;;;;;;;;;5097270;28;20105;-76